Time;durP1;ratioP1;P1;durP2;ratioP2;P2;SDS_P1;SDS_P2;PMS_P1;PMS_P2;Temp;Humidity;BMP_temperature;BMP_pressure;BME280_temperature;BME280_humidity;BME280_pressure;Samples;Min_cycle;Max_cycle;Signal;HPM_P1;HPM_P2
2022/06/11 00:01:58;;;;;;;;;6.25;6.25;;;;;-143.57;100.00;65101.44;5078184;28;45478;-55
2022/06/11 00:04:32;;;;;;;;;7.00;6.00;;;;;-143.57;100.00;65101.44;5078653;28;45613;-58
2022/06/11 00:07:03;;;;;;;;;9.00;7.00;;;;;-143.57;100.00;65101.44;5079055;27;45257;-59
2022/06/11 00:09:29;;;;;;;;;8.25;8.00;;;;;-143.57;100.00;65101.44;5079251;27;45508;-56
2022/06/11 00:11:56;;;;;;;;;7.00;6.00;;;;;-143.57;100.00;65101.44;5078680;28;46067;-57
2022/06/11 00:14:23;;;;;;;;;5.20;4.40;;;;;-143.57;100.00;65101.44;5078275;27;45403;-59
2022/06/11 00:16:49;;;;;;;;;6.25;6.25;;;;;-143.57;100.00;65101.44;5078790;27;45387;-54
2022/06/11 00:19:15;;;;;;;;;5.25;4.00;;;;;-143.57;100.00;65101.44;5078815;27;45426;-57
2022/06/11 00:21:42;;;;;;;;;6.25;4.00;;;;;-143.57;100.00;65101.44;5077942;28;45264;-58
2022/06/11 00:24:08;;;;;;;;;4.20;4.20;;;;;-143.57;100.00;65101.44;5078630;27;45464;-54
2022/06/11 00:26:34;;;;;;;;;5.25;5.00;;;;;-143.57;100.00;65101.44;5078722;27;45355;-57
2022/06/11 00:29:00;;;;;;;;;6.00;6.00;;;;;-143.57;100.00;65101.44;5079052;27;45430;-58
2022/06/11 00:31:26;;;;;;;;;6.25;6.25;;;;;-143.57;100.00;65101.44;5078547;27;46574;-57
2022/06/11 00:33:51;;;;;;;;;4.20;4.00;;;;;-143.57;100.00;65101.44;5078676;28;45313;-53
2022/06/11 00:36:18;;;;;;;;;7.50;5.75;;;;;-143.57;100.00;65101.44;5078554;28;45329;-56
2022/06/11 00:38:44;;;;;;;;;5.25;5.25;;;;;-143.57;100.00;65101.44;5078811;27;45369;-57
2022/06/11 00:41:10;;;;;;;;;5.00;4.75;;;;;-143.57;100.00;65101.44;5078464;27;46041;-55
2022/06/11 00:43:39;;;;;;;;;5.00;5.00;;;;;-143.57;100.00;65101.44;5078349;27;45368;-57
2022/06/11 00:46:46;;;;;;;;;8.25;5.00;;;;;-143.57;100.00;65101.44;5078636;28;45439;-55
2022/06/11 00:49:21;;;;;;;;;6.75;4.25;;;;;-143.57;100.00;65101.44;5078795;28;45308;-56
2022/06/11 00:51:48;;;;;;;;;5.25;5.00;;;;;-143.57;100.00;65101.44;5078282;28;45391;-56
2022/06/11 00:54:23;;;;;;;;;7.25;6.00;;;;;-143.57;100.00;65101.44;5078186;28;45466;-54
2022/06/11 00:56:53;;;;;;;;;7.75;5.00;;;;;-143.57;100.00;65101.44;5077818;27;45372;-59
2022/06/11 00:59:29;;;;;;;;;5.00;5.00;;;;;-143.57;100.00;65101.44;5078182;27;45230;-60
2022/06/11 01:01:54;;;;;;;;;5.50;5.00;;;;;-143.57;100.00;65101.44;5077994;28;46245;-58
2022/06/11 01:04:54;;;;;;;;;7.00;5.75;;;;;-143.57;100.00;65101.44;5076970;28;45403;-57
2022/06/11 01:07:57;;;;;;;;;10.00;7.00;;;;;-143.57;100.00;65101.44;4995422;28;45389;-59
2022/06/11 01:10:54;;;;;;;;;7.25;6.00;;;;;-143.57;100.00;65101.44;4996154;28;45319;-57
2022/06/11 01:13:42;;;;;;;;;7.75;6.00;;;;;-143.57;100.00;65101.44;4995297;28;46954;-58
2022/06/11 01:16:23;;;;;;;;;5.50;4.50;;;;;-143.57;100.00;65101.44;4995330;28;45471;-56
2022/06/11 01:19:03;;;;;;;;;6.00;6.00;;;;;-143.57;100.00;65101.44;4995449;28;45357;-57
2022/06/11 01:21:44;;;;;;;;;4.50;4.50;;;;;-143.57;100.00;65101.44;4995867;28;45406;-56
2022/06/11 01:24:37;;;;;;;;;5.25;5.25;;;;;-143.57;100.00;65101.44;4995501;28;46219;-56
2022/06/11 01:27:27;;;;;;;;;6.50;5.75;;;;;-143.57;100.00;65101.44;4995464;28;45362;-57
2022/06/11 01:30:04;;;;;;;;;6.50;6.25;;;;;-143.57;100.00;65101.44;4995630;28;45484;-58
2022/06/11 01:32:47;;;;;;;;;6.25;6.25;;;;;-143.57;100.00;65101.44;4995285;28;45438;-57
2022/06/11 01:35:41;;;;;;;;;5.75;5.25;;;;;-143.57;100.00;65101.44;4995105;28;46081;-58
2022/06/11 01:38:25;;;;;;;;;5.50;5.25;;;;;-143.57;100.00;65101.44;4995182;28;45441;-58
2022/06/11 01:41:31;;;;;;;;;7.50;5.00;;;;;-143.57;100.00;65101.44;4995154;28;45384;-59
2022/06/11 01:44:08;;;;;;;;;7.75;5.00;;;;;-143.57;100.00;65101.44;5033399;28;45240;-58
2022/06/11 01:46:37;;;;;;;;;4.75;4.75;;;;;-143.57;100.00;65101.44;5077445;27;45381;-58
2022/06/11 01:49:21;;;;;;;;;7.00;3.75;;;;;-143.57;100.00;65101.44;5077254;27;45760;-58
2022/06/11 01:52:00;;;;;;;;;4.75;4.75;;;;;-143.57;100.00;65101.44;5077216;27;45860;-58
2022/06/11 01:54:34;;;;;;;;;8.00;6.00;;;;;-143.57;100.00;65101.44;5077400;28;45324;-59
2022/06/11 01:57:20;;;;;;;;;7.25;6.00;;;;;-143.57;100.00;65101.44;5077279;28;45353;-59
2022/06/11 02:00:23;;;;;;;;;5.00;5.00;;;;;-143.57;100.00;65101.44;5077250;28;45343;-59
2022/06/11 02:03:27;;;;;;;;;5.25;2.75;;;;;-143.57;100.00;65101.44;4995047;28;45290;-58
2022/06/11 02:06:01;;;;;;;;;4.25;4.00;;;;;-143.57;100.00;65101.44;4994823;28;45535;-56
2022/06/11 02:09:14;;;;;;;;;5.00;5.00;;;;;-143.57;100.00;65101.44;4994642;28;46196;-57
2022/06/11 02:11:46;;;;;;;;;6.00;6.00;;;;;-143.57;100.00;65101.44;4994195;28;45474;-58
2022/06/11 02:14:44;;;;;;;;;5.75;4.50;;;;;-143.57;100.00;65101.44;4994591;28;45285;-58
2022/06/11 02:17:15;;;;;;;;;6.75;4.75;;;;;-143.57;100.00;65101.44;4994866;28;45428;-58
2022/06/11 02:19:51;;;;;;;;;4.50;4.50;;;;;-143.57;100.00;65101.44;4993797;28;46447;-59
2022/06/11 02:22:23;;;;;;;;;4.00;4.00;;;;;-143.57;100.00;65101.44;4994629;28;45491;-59
2022/06/11 02:24:53;;;;;;;;;6.00;3.25;;;;;-143.57;100.00;65101.44;4994936;28;45379;-59
2022/06/11 02:27:23;;;;;;;;;8.00;5.00;;;;;-143.57;100.00;65101.44;4994822;28;45464;-60
2022/06/11 02:29:52;;;;;;;;;6.00;4.25;;;;;-143.57;100.00;65101.44;4994562;28;47115;-60
2022/06/11 02:32:20;;;;;;;;;4.80;4.80;;;;;-143.57;100.00;65101.44;4994245;28;45448;-58
2022/06/11 02:34:53;;;;;;;;;4.75;4.75;;;;;-143.57;100.00;65101.44;4994652;28;45579;-59
2022/06/11 02:37:33;;;;;;;;;4.00;4.00;;;;;-143.57;100.00;65101.44;5054514;28;45361;-59
2022/06/11 02:40:27;;;;;;;;;5.00;5.00;;;;;-143.57;100.00;65101.44;5076811;28;47462;-60
2022/06/11 02:42:53;;;;;;;;;4.50;4.50;;;;;-143.57;100.00;65101.44;5076614;28;45246;-58
2022/06/11 02:45:19;;;;;;;;;5.75;4.50;;;;;-143.57;100.00;65101.44;5077015;28;45390;-59
2022/06/11 02:47:48;;;;;;;;;4.75;4.50;;;;;-143.57;100.00;65101.44;5076837;28;45303;-57
2022/06/11 02:50:26;;;;;;;;;6.00;3.50;;;;;-143.57;100.00;65101.44;5076851;28;46278;-60
2022/06/11 02:52:54;;;;;;;;;6.75;4.75;;;;;-143.57;100.00;65101.44;5076540;28;45371;-57
2022/06/11 02:55:19;;;;;;;;;6.50;5.25;;;;;-143.57;100.00;65101.44;5076563;28;45715;-58
2022/06/11 02:57:45;;;;;;;;;8.50;5.25;;;;;-143.57;100.00;65101.44;5076933;28;45352;-57
2022/06/11 03:00:17;;;;;;;;;6.25;4.75;;;;;-143.57;100.00;65101.44;5076161;28;45201;-57
2022/06/11 03:02:47;;;;;;;;;5.00;5.00;;;;;-143.57;100.00;65101.44;5076246;27;45502;-59
2022/06/11 03:05:13;;;;;;;;;5.00;4.00;;;;;-143.57;100.00;65101.44;5076627;27;45495;-58
2022/06/11 03:07:39;;;;;;;;;4.00;4.00;;;;;-143.57;100.00;65101.44;5076280;27;45525;-59
2022/06/11 03:10:05;;;;;;;;;4.50;4.50;;;;;-143.57;100.00;65101.44;5076110;27;46181;-58
2022/06/11 03:12:30;;;;;;;;;4.25;4.25;;;;;-143.57;100.00;65101.44;5076377;28;45469;-56
2022/06/11 03:14:56;;;;;;;;;5.25;3.75;;;;;-143.57;100.00;65101.44;5076329;27;45464;-58
2022/06/11 03:17:22;;;;;;;;;4.75;4.75;;;;;-143.57;100.00;65101.44;5076698;28;45290;-58
2022/06/11 03:19:48;;;;;;;;;5.50;5.00;;;;;-143.57;100.00;65101.44;5075927;28;46455;-59
2022/06/11 03:22:13;;;;;;;;;6.00;4.50;;;;;-143.57;100.00;65101.44;5075909;28;45158;-58
2022/06/11 03:24:39;;;;;;;;;4.25;4.25;;;;;-143.57;100.00;65101.44;5076330;28;45737;-58
2022/06/11 03:27:06;;;;;;;;;5.00;5.00;;;;;-143.57;100.00;65101.44;5077324;28;45216;-59
2022/06/11 03:29:31;;;;;;;;;5.50;4.50;;;;;-143.57;100.00;65101.44;5079555;27;47141;-59
2022/06/11 03:31:57;;;;;;;;;4.50;4.00;;;;;-143.57;100.00;65101.44;5079642;27;45429;-57
2022/06/11 03:34:22;;;;;;;;;6.00;4.00;;;;;-143.57;100.00;65101.44;5061395;28;45728;-57
2022/06/11 03:36:49;;;;;;;;;6.00;5.00;;;;;-143.57;100.00;65101.44;5079715;27;45322;-57
2022/06/11 03:39:18;;;;;;;;;9.00;6.00;;;;;-143.57;100.00;65101.44;5079407;28;45284;-57
2022/06/11 03:41:44;;;;;;;;;9.00;7.50;;;;;-143.57;100.00;65101.44;5061144;28;45364;-56
2022/06/11 03:44:11;;;;;;;;;9.00;8.00;;;;;-143.57;100.00;65101.44;5079607;27;45243;-57
2022/06/11 03:46:36;;;;;;;;;6.50;6.50;;;;;-143.57;100.00;65101.44;5079489;28;45157;-57
2022/06/11 03:49:03;;;;;;;;;6.25;6.25;;;;;-143.57;100.00;65101.44;5079416;27;45474;-55
2022/06/11 03:51:28;;;;;;;;;5.00;5.00;;;;;-143.57;100.00;65101.44;5079232;27;45396;-52
2022/06/11 03:53:54;;;;;;;;;5.00;5.00;;;;;-143.57;100.00;65101.44;5078888;27;45399;-59
2022/06/11 03:56:19;;;;;;;;;6.00;6.00;;;;;-143.57;100.00;65101.44;5079458;27;45315;-59
2022/06/11 03:58:47;;;;;;;;;6.75;5.25;;;;;-143.57;100.00;65101.44;5078926;28;45464;-53
2022/06/11 04:01:17;;;;;;;;;5.75;5.75;;;;;-143.57;100.00;65101.44;5079363;27;45373;-58
2022/06/11 04:03:46;;;;;;;;;5.25;4.75;;;;;-143.57;100.00;65101.44;5079105;28;45435;-53
2022/06/11 04:06:11;;;;;;;;;7.00;5.00;;;;;-143.57;100.00;65101.44;5079238;27;45469;-58
2022/06/11 04:08:38;;;;;;;;;4.00;4.00;;;;;-143.57;100.00;65101.44;5078761;27;47136;-55
2022/06/11 04:11:04;;;;;;;;;6.25;6.25;;;;;-143.57;100.00;65101.44;5078294;28;45430;-53
2022/06/11 04:13:33;;;;;;;;;6.25;5.00;;;;;-143.57;100.00;65101.44;5079023;28;45219;-49
2022/06/11 04:15:59;;;;;;;;;6.00;4.25;;;;;-143.57;100.00;65101.44;5079199;27;45540;-56
2022/06/11 04:18:31;;;;;;;;;6.50;5.50;;;;;-143.57;100.00;65101.44;5078177;27;46241;-57
2022/06/11 04:21:00;;;;;;;;;7.25;6.25;;;;;-143.57;100.00;65101.44;5078575;28;45461;-59
2022/06/11 04:23:29;;;;;;;;;5.50;5.50;;;;;-143.57;100.00;65101.44;5078795;28;45454;-59
2022/06/11 04:26:06;;;;;;;;;5.00;5.00;;;;;-143.57;100.00;65101.44;5079126;28;45388;-59
2022/06/11 04:28:32;;;;;;;;;7.75;6.00;;;;;-143.57;100.00;65101.44;5077916;27;45564;-54
2022/06/11 04:31:00;;;;;;;;;6.25;4.50;;;;;-143.57;100.00;65101.44;5078693;27;45517;-56
2022/06/11 04:33:26;;;;;;;;;4.75;4.75;;;;;-143.57;100.00;65101.44;5078618;27;45414;-56
2022/06/11 04:35:52;;;;;;;;;3.50;3.50;;;;;-143.57;100.00;65101.44;5079016;28;45277;-56
2022/06/11 04:38:17;;;;;;;;;6.25;6.25;;;;;-143.57;100.00;65101.44;5078876;28;45472;-55
2022/06/11 04:40:43;;;;;;;;;7.50;5.75;;;;;-143.57;100.00;65101.44;5078618;27;45216;-59
2022/06/11 04:43:09;;;;;;;;;7.75;6.25;;;;;-143.57;100.00;65101.44;5079012;28;45295;-57
2022/06/11 04:45:35;;;;;;;;;4.25;4.25;;;;;-143.57;100.00;65101.44;5078656;27;45363;-57
2022/06/11 04:48:00;;;;;;;;;8.00;8.00;;;;;-143.57;100.00;65101.44;5078470;27;46865;-59
2022/06/11 04:50:26;;;;;;;;;8.50;7.50;;;;;-143.57;100.00;65101.44;5078451;27;45259;-51
2022/06/11 04:52:51;;;;;;;;;6.50;6.50;;;;;-143.57;100.00;65101.44;5077984;28;45959;-55
2022/06/11 04:55:17;;;;;;;;;3.50;3.50;;;;;-143.57;100.00;65101.44;5078700;28;45258;-56
2022/06/11 04:57:44;;;;;;;;;7.75;7.00;;;;;-143.57;100.00;65101.44;5078025;27;46021;-57
2022/06/11 05:00:16;;;;;;;;;6.25;6.00;;;;;-143.57;100.00;65101.44;5077980;27;45481;-55
2022/06/11 05:02:41;;;;;;;;;5.75;5.75;;;;;-143.57;100.00;65101.44;5078272;28;45322;-56
2022/06/11 05:05:08;;;;;;;;;4.50;4.50;;;;;-143.57;100.00;65101.44;5078544;27;45281;-59
2022/06/11 05:07:34;;;;;;;;;8.00;6.50;;;;;-143.57;100.00;65101.44;5077840;28;46143;-58
2022/06/11 05:09:59;;;;;;;;;9.25;7.25;;;;;-143.57;100.00;65101.44;5078192;27;45508;-53
2022/06/11 05:12:25;;;;;;;;;9.25;6.00;;;;;-143.57;100.00;65101.44;5078266;27;45382;-58
2022/06/11 05:14:50;;;;;;;;;6.25;6.25;;;;;-143.57;100.00;65101.44;5078467;28;45421;-62
2022/06/11 05:17:16;;;;;;;;;7.00;7.00;;;;;-143.57;100.00;65101.44;5077865;28;45587;-59
2022/06/11 05:19:41;;;;;;;;;7.00;6.75;;;;;-143.57;100.00;65101.44;5077803;27;45448;-58
2022/06/11 05:22:07;;;;;;;;;9.25;7.50;;;;;-143.57;100.00;65101.44;5078065;28;45303;-59
2022/06/11 05:24:33;;;;;;;;;9.00;7.00;;;;;-143.57;100.00;65101.44;5078036;27;45221;-56
2022/06/11 05:27:06;;;;;;;;;10.25;7.75;;;;;-143.57;100.00;65101.44;5077763;27;45470;-58
2022/06/11 05:29:40;;;;;;;;;10.00;7.00;;;;;-143.57;100.00;65101.44;5077183;28;45358;-56
2022/06/11 05:32:06;;;;;;;;;5.75;5.25;;;;;-143.57;100.00;65101.44;5077800;28;45263;-61
2022/06/11 05:34:31;;;;;;;;;8.75;6.75;;;;;-143.57;100.00;65101.44;5078000;28;45316;-59
2022/06/11 05:36:58;;;;;;;;;8.50;5.75;;;;;-143.57;100.00;65101.44;5077615;28;46051;-60
2022/06/11 05:39:24;;;;;;;;;7.75;6.75;;;;;-143.57;100.00;65101.44;5076926;27;45340;-58
2022/06/11 05:41:50;;;;;;;;;8.50;7.75;;;;;-143.57;100.00;65101.44;5077829;28;45372;-59
2022/06/11 05:44:16;;;;;;;;;9.75;4.75;;;;;-143.57;100.00;65101.44;5077738;27;45339;-60
2022/06/11 05:46:41;;;;;;;;;10.00;7.00;;;;;-143.57;100.00;65101.44;5077381;27;46203;-58
2022/06/11 05:49:14;;;;;;;;;8.25;7.00;;;;;-143.57;100.00;65101.44;5077043;28;45451;-57
2022/06/11 05:51:43;;;;;;;;;8.00;8.00;;;;;-143.57;100.00;65101.44;5077208;28;45359;-58
2022/06/11 05:54:14;;;;;;;;;9.00;6.75;;;;;-143.57;100.00;65101.44;5077558;28;45272;-56
2022/06/11 05:56:40;;;;;;;;;9.75;7.00;;;;;-143.57;100.00;65101.44;5077211;27;45410;-59
2022/06/11 05:59:17;;;;;;;;;10.75;8.00;;;;;-143.57;100.00;65101.44;5077231;27;45560;-59
2022/06/11 06:01:43;;;;;;;;;8.00;6.00;;;;;-143.57;100.00;65101.44;5077438;28;45249;-57
2022/06/11 06:04:08;;;;;;;;;10.00;7.75;;;;;-143.57;100.00;65101.44;5077472;28;45484;-59
2022/06/11 06:06:35;;;;;;;;;9.00;7.00;;;;;-143.57;100.00;65101.44;5077077;28;45385;-59
2022/06/11 06:09:01;;;;;;;;;9.00;7.50;;;;;-143.57;100.00;65101.44;5077037;28;45387;-53
2022/06/11 06:11:27;;;;;;;;;6.50;6.50;;;;;-143.57;100.00;65101.44;5077029;28;45405;-59
2022/06/11 06:13:55;;;;;;;;;7.00;7.00;;;;;-143.57;100.00;65101.44;5077222;28;45324;-58
2022/06/11 06:16:24;;;;;;;;;9.50;9.00;;;;;-143.57;100.00;65101.44;5076919;28;46400;-57
2022/06/11 06:18:50;;;;;;;;;8.00;8.00;;;;;-143.57;100.00;65101.44;5076773;27;45362;-59
2022/06/11 06:21:20;;;;;;;;;8.50;7.50;;;;;-143.57;100.00;65101.44;5076898;28;45515;-60
2022/06/11 06:23:45;;;;;;;;;8.00;6.75;;;;;-143.57;100.00;65101.44;5077042;28;45404;-53
2022/06/11 06:26:11;;;;;;;;;11.25;8.00;;;;;-143.57;100.00;65101.44;5077032;27;45342;-58
2022/06/11 06:28:36;;;;;;;;;9.75;8.50;;;;;-143.57;100.00;65101.44;5077265;28;45228;-57
2022/06/11 06:31:05;;;;;;;;;11.00;6.50;;;;;-143.57;100.00;65101.44;5076850;28;45252;-59
2022/06/11 06:33:30;;;;;;;;;8.00;6.00;;;;;-143.57;100.00;65101.44;5077115;28;45296;-56
2022/06/11 06:36:00;;;;;;;;;9.00;6.00;;;;;-143.57;100.00;65101.44;5076942;28;45331;-58
2022/06/11 06:38:26;;;;;;;;;8.50;8.50;;;;;-143.57;100.00;65101.44;5076872;27;45460;-57
2022/06/11 06:40:52;;;;;;;;;11.25;10.00;;;;;-143.57;100.00;65101.44;5076924;28;45288;-57
2022/06/11 06:43:18;;;;;;;;;13.00;12.75;;;;;-143.57;100.00;65101.44;5077134;27;45469;-57
2022/06/11 06:45:45;;;;;;;;;9.50;9.25;;;;;-143.57;100.00;65101.44;5076300;28;46108;-58
2022/06/11 06:48:10;;;;;;;;;10.60;7.00;;;;;-143.57;100.00;65101.44;5076715;27;45366;-58
2022/06/11 06:50:36;;;;;;;;;7.00;7.00;;;;;-143.57;100.00;65101.44;5076699;28;45385;-57
2022/06/11 06:53:02;;;;;;;;;5.25;5.25;;;;;-143.57;100.00;65101.44;5077142;28;45221;-56
2022/06/11 06:55:27;;;;;;;;;8.00;7.75;;;;;-143.57;100.00;65101.44;5076599;28;45519;-58
2022/06/11 06:57:52;;;;;;;;;5.00;5.00;;;;;-143.57;100.00;65101.44;5076577;28;45441;-58
2022/06/11 07:00:19;;;;;;;;;5.50;5.25;;;;;-143.57;100.00;65101.44;5077035;27;45607;-59
2022/06/11 07:02:45;;;;;;;;;10.00;7.20;;;;;-143.57;100.00;65101.44;5078727;28;45486;-58
2022/06/11 07:05:12;;;;;;;;;3.80;3.00;;;;;-143.57;100.00;65101.44;5080131;27;46289;-60
2022/06/11 07:07:39;;;;;;;;;8.80;7.40;;;;;-143.57;100.00;65101.44;5080466;28;45515;-60
2022/06/11 07:10:06;;;;;;;;;8.40;6.20;;;;;-143.57;100.00;65101.44;5080083;28;45378;-58
2022/06/11 07:12:32;;;;;;;;;6.80;4.60;;;;;-143.57;100.00;65101.44;5080813;28;45389;-59
2022/06/11 07:14:58;;;;;;;;;6.50;5.75;;;;;-143.57;100.00;65101.44;5079535;27;45431;-60
2022/06/11 07:17:26;;;;;;;;;6.00;6.00;;;;;-143.57;100.00;65101.44;5080043;27;45185;-57
2022/06/11 07:19:57;;;;;;;;;7.20;4.20;;;;;-143.57;100.00;65101.44;5080718;27;45461;-59
2022/06/11 07:22:31;;;;;;;;;6.60;5.00;;;;;-143.57;100.00;65101.44;5062333;28;45246;-56
2022/06/11 07:24:59;;;;;;;;;4.20;4.20;;;;;-143.57;100.00;65101.44;5079678;28;45451;-59
2022/06/11 07:27:28;;;;;;;;;5.00;5.00;;;;;-143.57;100.00;65101.44;5080147;28;45393;-58
2022/06/11 07:30:03;;;;;;;;;4.60;4.60;;;;;-143.57;100.00;65101.44;5079903;27;45444;-57
2022/06/11 07:32:35;;;;;;;;;10.40;4.60;;;;;-143.57;100.00;65101.44;5080085;27;45478;-57
2022/06/11 07:35:05;;;;;;;;;8.20;6.00;;;;;-143.57;100.00;65101.44;5079271;27;46340;-59
2022/06/11 07:37:32;;;;;;;;;5.80;4.00;;;;;-143.57;100.00;65101.44;5079687;27;45411;-59
2022/06/11 07:39:58;;;;;;;;;7.00;5.00;;;;;-143.57;100.00;65101.44;5085023;27;45264;-57
2022/06/11 07:42:24;;;;;;;;;8.60;6.40;;;;;-143.57;100.00;65101.44;5100717;27;45382;-57
2022/06/11 07:44:50;;;;;;;;;7.00;5.50;;;;;-143.57;100.00;65101.44;5100371;27;46011;-56
2022/06/11 07:47:53;;;;;;;;;4.25;4.25;;;;;-143.57;100.00;65101.44;5100617;27;45342;-59
2022/06/11 07:50:01;;;;;;;;;4.40;4.40;;;;;-143.57;100.00;65101.44;5100216;27;45259;-56
2022/06/11 07:52:26;;;;;;;;;4.50;4.50;;;;;-143.57;100.00;65101.44;5100592;27;45325;-60
2022/06/11 07:54:51;;;;;;;;;4.50;4.00;;;;;-143.57;100.00;65101.44;5099946;27;46094;-60
2022/06/11 07:57:17;;;;;;;;;5.00;5.00;;;;;-143.57;100.00;65101.44;5100293;27;45295;-57
2022/06/11 07:59:44;;;;;;;;;5.00;5.00;;;;;-143.57;100.00;65101.44;5100566;27;45289;-57
2022/06/11 08:02:09;;;;;;;;;5.00;5.00;;;;;-143.57;100.00;65101.44;5100520;27;45324;-58
2022/06/11 08:04:34;;;;;;;;;6.00;5.00;;;;;-143.57;100.00;65101.44;5100142;27;45425;-59
2022/06/11 08:07:00;;;;;;;;;6.75;6.00;;;;;-143.57;100.00;65101.44;5099661;27;45509;-58
2022/06/11 08:09:25;;;;;;;;;5.25;5.25;;;;;-143.57;100.00;65101.44;5099948;27;45313;-57
2022/06/11 08:11:50;;;;;;;;;7.75;4.75;;;;;-143.57;100.00;65101.44;5099748;27;45389;-61
2022/06/11 08:14:16;;;;;;;;;5.25;5.25;;;;;-143.57;100.00;65101.44;5098913;27;45321;-56
2022/06/11 08:16:41;;;;;;;;;5.00;5.00;;;;;-143.57;100.00;65101.44;5099681;27;45414;-57
2022/06/11 08:19:06;;;;;;;;;6.00;5.00;;;;;-143.57;100.00;65101.44;5099431;27;45717;-58
2022/06/11 08:21:32;;;;;;;;;6.25;4.75;;;;;-143.57;100.00;65101.44;5081869;27;45359;-55
2022/06/11 08:23:57;;;;;;;;;5.00;5.00;;;;;-143.57;100.00;65101.44;5099288;27;46105;-59
2022/06/11 08:26:23;;;;;;;;;6.50;5.00;;;;;-143.57;100.00;65101.44;5099223;27;45343;-58
2022/06/11 08:28:48;;;;;;;;;4.75;4.75;;;;;-143.57;100.00;65101.44;5099487;27;45314;-56
2022/06/11 08:31:13;;;;;;;;;4.00;4.00;;;;;-143.57;100.00;65101.44;5099635;27;45367;-56
2022/06/11 08:33:39;;;;;;;;;7.00;6.00;;;;;-143.57;100.00;65101.44;5099270;27;46877;-57
2022/06/11 08:36:04;;;;;;;;;8.00;8.00;;;;;-143.57;100.00;65101.44;5099194;27;45198;-57
2022/06/11 08:38:29;;;;;;;;;7.75;5.00;;;;;-143.57;100.00;65101.44;5099375;27;45209;-52
2022/06/11 08:40:56;;;;;;;;;6.00;5.50;;;;;-143.57;100.00;65101.44;5081004;27;45337;-55
2022/06/11 08:43:32;;;;;;;;;5.00;5.00;;;;;-143.57;100.00;65101.44;5098899;27;46383;-57
2022/06/11 08:46:03;;;;;;;;;4.00;4.00;;;;;-143.57;100.00;65101.44;5099022;27;45337;-53
2022/06/11 08:48:47;;;;;;;;;10.40;7.40;;;;;-143.57;100.00;65101.44;5099384;27;45370;-56
2022/06/11 08:51:23;;;;;;;;;3.20;3.20;;;;;-143.57;100.00;65101.44;5099435;27;45390;-57
2022/06/11 08:53:51;;;;;;;;;8.00;4.80;;;;;-143.57;100.00;65101.44;5098813;27;46224;-58
2022/06/11 08:56:32;;;;;;;;;6.80;4.80;;;;;-143.57;100.00;65101.44;5098676;27;45330;-58
2022/06/11 08:59:35;;;;;;;;;7.20;5.80;;;;;-143.57;100.00;65101.44;5080724;27;45450;-59
2022/06/11 09:02:19;;;;;;;;;5.20;5.20;;;;;-143.57;100.00;65101.44;5080285;27;45356;-57
2022/06/11 09:04:56;;;;;;;;;6.20;4.40;;;;;-143.57;100.00;65101.44;5098706;27;45553;-57
2022/06/11 09:07:54;;;;;;;;;7.20;5.60;;;;;-143.57;100.00;65101.44;5098629;27;45344;-56
2022/06/11 09:10:31;;;;;;;;;6.40;5.20;;;;;-143.57;100.00;65101.44;5015273;28;45352;-57
2022/06/11 09:12:59;;;;;;;;;4.00;4.00;;;;;-143.57;100.00;65101.44;5015659;28;45379;-53
2022/06/11 09:15:31;;;;;;;;;4.20;2.80;;;;;-143.57;100.00;65101.44;5015477;28;46659;-52
2022/06/11 09:17:56;;;;;;;;;3.80;2.20;;;;;-143.57;100.00;65101.44;5015423;28;45379;-57
2022/06/11 09:20:30;;;;;;;;;5.50;4.00;;;;;-143.57;100.00;65101.44;5015499;28;45669;-58
2022/06/11 09:23:19;;;;;;;;;3.60;3.00;;;;;-143.57;100.00;65101.44;5015800;28;45252;-54
2022/06/11 09:25:53;;;;;;;;;6.00;4.60;;;;;-143.57;100.00;65101.44;5014347;28;46318;-51
2022/06/11 09:28:59;;;;;;;;;4.80;4.00;;;;;-143.57;100.00;65101.44;5015156;28;45453;-57
2022/06/11 09:31:47;;;;;;;;;4.60;4.00;;;;;-143.57;100.00;65101.44;5015287;28;45364;-58
2022/06/11 09:34:43;;;;;;;;;4.20;4.20;;;;;-143.57;100.00;65101.44;5015435;28;45672;-58
2022/06/11 09:37:16;;;;;;;;;3.40;3.20;;;;;-143.57;100.00;65101.44;5015421;28;45533;-58
2022/06/11 09:39:52;;;;;;;;;4.60;4.60;;;;;-143.57;100.00;65101.44;5014990;28;45459;-57
2022/06/11 09:42:42;;;;;;;;;6.00;4.60;;;;;-143.57;100.00;65101.44;5015075;28;45432;-57
2022/06/11 09:45:18;;;;;;;;;3.20;3.20;;;;;-143.57;100.00;65101.44;5028597;27;45465;-59
2022/06/11 09:48:14;;;;;;;;;3.60;3.40;;;;;-143.57;100.00;65101.44;5097817;27;45497;-57
2022/06/11 09:51:06;;;;;;;;;4.40;4.40;;;;;-143.57;100.00;65101.44;5097898;27;45351;-57
2022/06/11 09:53:36;;;;;;;;;4.80;4.20;;;;;-143.57;100.00;65101.44;5098032;27;45322;-59
2022/06/11 09:56:09;;;;;;;;;5.00;5.00;;;;;-143.57;100.00;65101.44;5079723;27;45496;-59
2022/06/11 09:58:59;;;;;;;;;3.40;3.40;;;;;-143.57;100.00;65101.44;5097854;27;46370;-58
2022/06/11 10:01:42;;;;;;;;;6.00;4.40;;;;;-143.57;100.00;65101.44;5098093;27;45269;-57
2022/06/11 10:04:11;;;;;;;;;5.00;5.00;;;;;-143.57;100.00;65101.44;5097982;27;45414;-53
2022/06/11 10:07:01;;;;;;;;;5.40;3.80;;;;;-143.57;100.00;65101.44;5097961;27;45469;-56
2022/06/11 10:09:39;;;;;;;;;5.20;3.00;;;;;-143.57;100.00;65101.44;5097410;27;46037;-52
2022/06/11 10:12:18;;;;;;;;;6.40;3.40;;;;;-143.57;100.00;65101.44;5097288;27;45240;-53
2022/06/11 10:14:55;;;;;;;;;5.80;3.00;;;;;-143.57;100.00;65101.44;5097720;27;45308;-54
2022/06/11 10:17:37;;;;;;;;;3.80;3.80;;;;;-143.57;100.00;65101.44;5097910;27;45409;-57
2022/06/11 10:20:10;;;;;;;;;3.00;3.00;;;;;-143.57;100.00;65101.44;5097353;27;46278;-58
2022/06/11 10:22:54;;;;;;;;;3.20;3.20;;;;;-143.57;100.00;65101.44;5097458;27;45410;-58
2022/06/11 10:25:34;;;;;;;;;4.80;4.00;;;;;-143.57;100.00;65101.44;5097096;27;45146;-59
2022/06/11 10:28:12;;;;;;;;;3.80;3.80;;;;;-143.57;100.00;65101.44;5097713;27;45398;-59
2022/06/11 10:30:45;;;;;;;;;2.80;2.80;;;;;-143.57;100.00;65101.44;5097313;27;47224;-59
2022/06/11 10:33:24;;;;;;;;;4.00;3.20;;;;;-143.57;100.00;65101.44;5097457;27;45317;-58
2022/06/11 10:35:59;;;;;;;;;4.00;4.00;;;;;-143.57;100.00;65101.44;5097595;27;45415;-58
2022/06/11 10:38:46;;;;;;;;;3.60;3.60;;;;;-143.57;100.00;65101.44;5101212;27;45379;-55
2022/06/11 10:41:23;;;;;;;;;5.20;3.00;;;;;-143.57;100.00;65101.44;5100656;27;45534;-55
2022/06/11 10:43:57;;;;;;;;;5.40;4.20;;;;;-143.57;100.00;65101.44;5100872;27;45259;-59
2022/06/11 10:46:23;;;;;;;;;3.60;3.60;;;;;-143.57;100.00;65101.44;5101183;27;45382;-57
2022/06/11 10:48:48;;;;;;;;;5.00;3.20;;;;;-143.57;100.00;65101.44;5101042;27;45286;-59
2022/06/11 10:51:22;;;;;;;;;2.75;2.75;;;;;-143.57;100.00;65101.44;5100550;27;46351;-59
2022/06/11 10:53:59;;;;;;;;;3.40;3.00;;;;;-143.57;100.00;65101.44;5100722;27;45480;-59
2022/06/11 10:56:38;;;;;;;;;6.40;2.60;;;;;-143.57;100.00;65101.44;5100825;27;45327;-56
2022/06/11 10:59:20;;;;;;;;;2.60;2.60;;;;;-143.57;100.00;65101.44;5101066;27;45318;-56
2022/06/11 11:02:22;;;;;;;;;3.20;3.20;;;;;-143.57;100.00;65101.44;5100456;27;46162;-53
2022/06/11 11:04:53;;;;;;;;;3.60;3.00;;;;;-143.57;100.00;65101.44;5099589;27;45382;-54
2022/06/11 11:07:20;;;;;;;;;2.60;2.60;;;;;-143.57;100.00;65101.44;5100722;27;45308;-55
2022/06/11 11:09:46;;;;;;;;;5.00;3.00;;;;;-143.57;100.00;65101.44;5100725;27;45272;-56
2022/06/11 11:12:32;;;;;;;;;4.80;4.80;;;;;-143.57;100.00;65101.44;5100502;27;46180;-54
2022/06/11 11:15:09;;;;;;;;;24.80;24.40;;;;;-143.57;100.00;65101.44;5100326;27;45316;-56
2022/06/11 11:17:34;;;;;;;;;31.00;28.60;;;;;-143.57;100.00;65101.44;5100274;27;45454;-52
2022/06/11 11:20:30;;;;;;;;;32.25;29.50;;;;;-143.57;100.00;65101.44;5100550;27;45303;-53
2022/06/11 11:23:00;;;;;;;;;35.40;29.60;;;;;-143.57;100.00;65101.44;5100351;27;45977;-55
2022/06/11 11:25:34;;;;;;;;;17.00;16.60;;;;;-143.57;100.00;65101.44;5100395;27;45291;-56
2022/06/11 11:28:00;;;;;;;;;20.00;18.80;;;;;-143.57;100.00;65101.44;5100107;27;45322;-55
2022/06/11 11:30:34;;;;;;;;;22.25;18.25;;;;;-143.57;100.00;65101.44;5100366;27;45405;-59
2022/06/11 11:33:23;;;;;;;;;2.20;1.60;;;;;-143.57;100.00;65101.44;5100100;27;46243;-55